sensor_id;sensor_type;location;lat;lon;timestamp;P1;durP1;ratioP1;P2;durP2;ratioP2
63536;SDS011;49686;51.880;5.632;2022-07-22T00:00:45;7.38;;;2.67;;
63536;SDS011;49686;51.880;5.632;2022-07-22T00:03:16;5.10;;;1.70;;
63536;SDS011;49686;51.880;5.632;2022-07-22T00:05:43;6.75;;;2.50;;
63536;SDS011;49686;51.880;5.632;2022-07-22T00:08:09;10.65;;;3.22;;
63536;SDS011;49686;51.880;5.632;2022-07-22T00:10:37;11.68;;;2.40;;
63536;SDS011;49686;51.880;5.632;2022-07-22T00:13:06;9.20;;;2.85;;
63536;SDS011;49686;51.880;5.632;2022-07-22T00:15:34;11.45;;;3.15;;
63536;SDS011;49686;51.880;5.632;2022-07-22T00:18:01;7.05;;;2.00;;
63536;SDS011;49686;51.880;5.632;2022-07-22T00:20:28;9.57;;;3.33;;
63536;SDS011;49686;51.880;5.632;2022-07-22T00:22:58;5.82;;;2.65;;
63536;SDS011;49686;51.880;5.632;2022-07-22T00:25:26;14.13;;;3.90;;
63536;SDS011;49686;51.880;5.632;2022-07-22T00:27:53;6.78;;;2.17;;
63536;SDS011;49686;51.880;5.632;2022-07-22T00:30:21;4.50;;;2.25;;
63536;SDS011;49686;51.880;5.632;2022-07-22T00:32:51;9.02;;;2.30;;
63536;SDS011;49686;51.880;5.632;2022-07-22T00:35:18;9.48;;;2.40;;
63536;SDS011;49686;51.880;5.632;2022-07-22T00:37:49;6.10;;;3.03;;
63536;SDS011;49686;51.880;5.632;2022-07-22T00:40:20;7.63;;;2.33;;
63536;SDS011;49686;51.880;5.632;2022-07-22T00:42:47;6.53;;;2.10;;
63536;SDS011;49686;51.880;5.632;2022-07-22T00:45:16;3.75;;;1.48;;
63536;SDS011;49686;51.880;5.632;2022-07-22T00:47:45;15.73;;;2.85;;
63536;SDS011;49686;51.880;5.632;2022-07-22T00:50:12;7.88;;;2.83;;
63536;SDS011;49686;51.880;5.632;2022-07-22T00:52:41;8.35;;;2.50;;
63536;SDS011;49686;51.880;5.632;2022-07-22T00:55:11;6.07;;;2.03;;
63536;SDS011;49686;51.880;5.632;2022-07-22T00:57:38;6.25;;;2.28;;
63536;SDS011;49686;51.880;5.632;2022-07-22T01:00:09;7.97;;;2.20;;
63536;SDS011;49686;51.880;5.632;2022-07-22T01:02:39;8.40;;;2.50;;
63536;SDS011;49686;51.880;5.632;2022-07-22T01:05:08;8.73;;;3.10;;
63536;SDS011;49686;51.880;5.632;2022-07-22T01:07:36;8.25;;;2.38;;
63536;SDS011;49686;51.880;5.632;2022-07-22T01:10:04;6.50;;;2.08;;
63536;SDS011;49686;51.880;5.632;2022-07-22T01:12:35;9.00;;;2.28;;
63536;SDS011;49686;51.880;5.632;2022-07-22T01:15:03;10.60;;;2.38;;
63536;SDS011;49686;51.880;5.632;2022-07-22T01:17:31;10.03;;;2.53;;
63536;SDS011;49686;51.880;5.632;2022-07-22T01:20:00;11.18;;;2.63;;
63536;SDS011;49686;51.880;5.632;2022-07-22T01:22:31;8.18;;;2.63;;
63536;SDS011;49686;51.880;5.632;2022-07-22T01:24:59;11.07;;;3.10;;
63536;SDS011;49686;51.880;5.632;2022-07-22T01:27:26;9.05;;;2.55;;
63536;SDS011;49686;51.880;5.632;2022-07-22T01:29:53;16.95;;;2.72;;
63536;SDS011;49686;51.880;5.632;2022-07-22T01:32:22;6.07;;;2.38;;
63536;SDS011;49686;51.880;5.632;2022-07-22T01:34:51;5.32;;;2.20;;
63536;SDS011;49686;51.880;5.632;2022-07-22T01:37:22;7.35;;;2.17;;
63536;SDS011;49686;51.880;5.632;2022-07-22T01:39:50;9.50;;;2.75;;
63536;SDS011;49686;51.880;5.632;2022-07-22T01:42:19;8.18;;;2.22;;
63536;SDS011;49686;51.880;5.632;2022-07-22T01:44:45;7.97;;;2.58;;
63536;SDS011;49686;51.880;5.632;2022-07-22T01:47:13;6.95;;;2.33;;
63536;SDS011;49686;51.880;5.632;2022-07-22T01:49:40;10.77;;;3.22;;
63536;SDS011;49686;51.880;5.632;2022-07-22T01:52:06;6.60;;;2.38;;
63536;SDS011;49686;51.880;5.632;2022-07-22T01:54:37;9.57;;;2.13;;
63536;SDS011;49686;51.880;5.632;2022-07-22T01:57:06;6.05;;;2.33;;
63536;SDS011;49686;51.880;5.632;2022-07-22T01:59:33;10.10;;;2.50;;
63536;SDS011;49686;51.880;5.632;2022-07-22T02:02:01;10.55;;;2.28;;
63536;SDS011;49686;51.880;5.632;2022-07-22T02:04:28;6.75;;;2.30;;
63536;SDS011;49686;51.880;5.632;2022-07-22T02:06:57;8.07;;;2.88;;
63536;SDS011;49686;51.880;5.632;2022-07-22T02:09:24;8.80;;;2.13;;
63536;SDS011;49686;51.880;5.632;2022-07-22T02:11:52;8.85;;;2.67;;
63536;SDS011;49686;51.880;5.632;2022-07-22T02:14:19;7.65;;;2.55;;
63536;SDS011;49686;51.880;5.632;2022-07-22T02:16:47;6.47;;;2.35;;
63536;SDS011;49686;51.880;5.632;2022-07-22T02:19:17;10.15;;;2.55;;
63536;SDS011;49686;51.880;5.632;2022-07-22T02:21:44;5.10;;;2.17;;
63536;SDS011;49686;51.880;5.632;2022-07-22T02:24:11;5.53;;;2.40;;
63536;SDS011;49686;51.880;5.632;2022-07-22T02:26:40;7.03;;;1.73;;
63536;SDS011;49686;51.880;5.632;2022-07-22T02:29:09;4.75;;;2.45;;
63536;SDS011;49686;51.880;5.632;2022-07-22T02:31:38;6.57;;;2.05;;
63536;SDS011;49686;51.880;5.632;2022-07-22T02:34:05;6.13;;;1.90;;
63536;SDS011;49686;51.880;5.632;2022-07-22T02:36:32;5.13;;;2.13;;
63536;SDS011;49686;51.880;5.632;2022-07-22T02:39:04;4.68;;;1.90;;
63536;SDS011;49686;51.880;5.632;2022-07-22T02:41:31;3.58;;;1.55;;
63536;SDS011;49686;51.880;5.632;2022-07-22T02:44:05;7.22;;;1.75;;
63536;SDS011;49686;51.880;5.632;2022-07-22T02:46:34;5.00;;;1.60;;
63536;SDS011;49686;51.880;5.632;2022-07-22T02:49:03;4.43;;;1.90;;
63536;SDS011;49686;51.880;5.632;2022-07-22T02:51:33;5.13;;;1.30;;
63536;SDS011;49686;51.880;5.632;2022-07-22T02:54:00;4.28;;;1.77;;
63536;SDS011;49686;51.880;5.632;2022-07-22T02:56:27;4.28;;;1.83;;
63536;SDS011;49686;51.880;5.632;2022-07-22T02:58:58;4.45;;;1.40;;
63536;SDS011;49686;51.880;5.632;2022-07-22T03:01:28;2.42;;;1.10;;
63536;SDS011;49686;51.880;5.632;2022-07-22T03:03:57;3.70;;;1.50;;
63536;SDS011;49686;51.880;5.632;2022-07-22T03:06:37;2.63;;;1.23;;
63536;SDS011;49686;51.880;5.632;2022-07-22T03:09:04;3.10;;;1.30;;
63536;SDS011;49686;51.880;5.632;2022-07-22T03:11:31;3.95;;;1.20;;
63536;SDS011;49686;51.880;5.632;2022-07-22T03:13:58;2.42;;;1.40;;
63536;SDS011;49686;51.880;5.632;2022-07-22T03:16:26;3.72;;;1.10;;
63536;SDS011;49686;51.880;5.632;2022-07-22T03:18:53;6.50;;;1.00;;
63536;SDS011;49686;51.880;5.632;2022-07-22T03:21:26;3.97;;;1.42;;
63536;SDS011;49686;51.880;5.632;2022-07-22T03:26:22;3.67;;;1.20;;
63536;SDS011;49686;51.880;5.632;2022-07-22T03:28:49;4.03;;;1.30;;
63536;SDS011;49686;51.880;5.632;2022-07-22T03:31:17;3.72;;;1.20;;
63536;SDS011;49686;51.880;5.632;2022-07-22T03:33:50;3.13;;;1.50;;
63536;SDS011;49686;51.880;5.632;2022-07-22T03:36:19;6.05;;;1.30;;
63536;SDS011;49686;51.880;5.632;2022-07-22T03:38:46;4.60;;;1.25;;
63536;SDS011;49686;51.880;5.632;2022-07-22T03:41:12;3.28;;;2.10;;
63536;SDS011;49686;51.880;5.632;2022-07-22T03:43:40;5.85;;;1.30;;
63536;SDS011;49686;51.880;5.632;2022-07-22T03:46:07;6.10;;;2.10;;
63536;SDS011;49686;51.880;5.632;2022-07-22T03:48:34;3.05;;;1.30;;
63536;SDS011;49686;51.880;5.632;2022-07-22T03:51:12;7.43;;;1.93;;
63536;SDS011;49686;51.880;5.632;2022-07-22T03:53:43;5.53;;;1.70;;
63536;SDS011;49686;51.880;5.632;2022-07-22T03:56:13;4.35;;;1.55;;
63536;SDS011;49686;51.880;5.632;2022-07-22T03:58:42;6.25;;;1.58;;
63536;SDS011;49686;51.880;5.632;2022-07-22T04:01:09;5.53;;;1.60;;
63536;SDS011;49686;51.880;5.632;2022-07-22T04:03:37;5.90;;;1.90;;
63536;SDS011;49686;51.880;5.632;2022-07-22T04:06:04;4.90;;;1.52;;
63536;SDS011;49686;51.880;5.632;2022-07-22T04:08:31;7.65;;;1.70;;
63536;SDS011;49686;51.880;5.632;2022-07-22T04:11:00;7.32;;;1.92;;
63536;SDS011;49686;51.880;5.632;2022-07-22T04:13:30;5.95;;;1.77;;
63536;SDS011;49686;51.880;5.632;2022-07-22T04:15:57;7.57;;;1.92;;
63536;SDS011;49686;51.880;5.632;2022-07-22T04:18:36;11.68;;;2.67;;
63536;SDS011;49686;51.880;5.632;2022-07-22T04:21:03;5.60;;;1.90;;
63536;SDS011;49686;51.880;5.632;2022-07-22T04:23:31;7.30;;;2.10;;
63536;SDS011;49686;51.880;5.632;2022-07-22T04:25:59;8.00;;;1.90;;
63536;SDS011;49686;51.880;5.632;2022-07-22T04:28:27;4.30;;;1.92;;
63536;SDS011;49686;51.880;5.632;2022-07-22T04:30:54;6.70;;;2.55;;
63536;SDS011;49686;51.880;5.632;2022-07-22T04:33:21;6.70;;;2.72;;
63536;SDS011;49686;51.880;5.632;2022-07-22T04:35:52;7.82;;;2.30;;
63536;SDS011;49686;51.880;5.632;2022-07-22T04:38:19;5.93;;;2.10;;
63536;SDS011;49686;51.880;5.632;2022-07-22T04:40:46;7.95;;;2.40;;
63536;SDS011;49686;51.880;5.632;2022-07-22T04:43:22;6.10;;;2.40;;
63536;SDS011;49686;51.880;5.632;2022-07-22T04:45:49;11.18;;;2.78;;
63536;SDS011;49686;51.880;5.632;2022-07-22T04:48:16;4.72;;;1.95;;
63536;SDS011;49686;51.880;5.632;2022-07-22T04:50:44;7.00;;;2.13;;
63536;SDS011;49686;51.880;5.632;2022-07-22T04:53:11;5.22;;;1.80;;
63536;SDS011;49686;51.880;5.632;2022-07-22T04:55:38;4.93;;;1.90;;
63536;SDS011;49686;51.880;5.632;2022-07-22T04:58:10;6.88;;;2.05;;
63536;SDS011;49686;51.880;5.632;2022-07-22T05:00:44;5.82;;;1.90;;
63536;SDS011;49686;51.880;5.632;2022-07-22T05:03:19;4.65;;;2.22;;
63536;SDS011;49686;51.880;5.632;2022-07-22T05:05:48;5.10;;;2.10;;
63536;SDS011;49686;51.880;5.632;2022-07-22T05:08:15;9.07;;;2.20;;
63536;SDS011;49686;51.880;5.632;2022-07-22T05:10:43;7.45;;;2.80;;
63536;SDS011;49686;51.880;5.632;2022-07-22T05:13:11;12.32;;;2.17;;
63536;SDS011;49686;51.880;5.632;2022-07-22T05:15:40;6.47;;;1.92;;
63536;SDS011;49686;51.880;5.632;2022-07-22T05:18:14;8.60;;;2.22;;
63536;SDS011;49686;51.880;5.632;2022-07-22T05:20:41;7.88;;;2.10;;
63536;SDS011;49686;51.880;5.632;2022-07-22T05:23:11;5.93;;;1.98;;
63536;SDS011;49686;51.880;5.632;2022-07-22T05:25:38;5.20;;;1.77;;
63536;SDS011;49686;51.880;5.632;2022-07-22T05:28:05;9.40;;;2.50;;
63536;SDS011;49686;51.880;5.632;2022-07-22T05:30:33;6.75;;;1.67;;
63536;SDS011;49686;51.880;5.632;2022-07-22T05:33:02;7.35;;;1.95;;
63536;SDS011;49686;51.880;5.632;2022-07-22T05:35:30;4.35;;;1.50;;
63536;SDS011;49686;51.880;5.632;2022-07-22T05:37:59;6.50;;;1.60;;
63536;SDS011;49686;51.880;5.632;2022-07-22T05:40:26;6.45;;;1.77;;
63536;SDS011;49686;51.880;5.632;2022-07-22T05:42:56;6.00;;;1.80;;
63536;SDS011;49686;51.880;5.632;2022-07-22T05:45:26;3.93;;;1.77;;
63536;SDS011;49686;51.880;5.632;2022-07-22T05:47:59;4.72;;;1.65;;
63536;SDS011;49686;51.880;5.632;2022-07-22T05:50:27;6.90;;;1.60;;
63536;SDS011;49686;51.880;5.632;2022-07-22T05:53:04;6.53;;;1.40;;
63536;SDS011;49686;51.880;5.632;2022-07-22T05:55:34;6.55;;;1.85;;
63536;SDS011;49686;51.880;5.632;2022-07-22T05:58:01;4.50;;;1.58;;
63536;SDS011;49686;51.880;5.632;2022-07-22T06:02:57;3.30;;;1.48;;
63536;SDS011;49686;51.880;5.632;2022-07-22T06:05:24;4.80;;;1.70;;
63536;SDS011;49686;51.880;5.632;2022-07-22T06:08:07;4.03;;;1.35;;
63536;SDS011;49686;51.880;5.632;2022-07-22T06:10:33;2.63;;;1.30;;
63536;SDS011;49686;51.880;5.632;2022-07-22T06:13:06;4.38;;;1.48;;
63536;SDS011;49686;51.880;5.632;2022-07-22T06:15:33;3.22;;;1.30;;
63536;SDS011;49686;51.880;5.632;2022-07-22T06:18:03;6.15;;;1.25;;
63536;SDS011;49686;51.880;5.632;2022-07-22T06:20:30;2.60;;;1.15;;
63536;SDS011;49686;51.880;5.632;2022-07-22T06:22:57;4.55;;;1.20;;
63536;SDS011;49686;51.880;5.632;2022-07-22T06:25:25;2.22;;;1.20;;
63536;SDS011;49686;51.880;5.632;2022-07-22T06:28:10;3.15;;;1.25;;
63536;SDS011;49686;51.880;5.632;2022-07-22T06:30:37;4.00;;;1.23;;
63536;SDS011;49686;51.880;5.632;2022-07-22T06:33:04;4.93;;;1.35;;
63536;SDS011;49686;51.880;5.632;2022-07-22T06:35:33;5.05;;;1.40;;
63536;SDS011;49686;51.880;5.632;2022-07-22T06:38:10;1.60;;;1.05;;
63536;SDS011;49686;51.880;5.632;2022-07-22T06:40:56;3.67;;;1.42;;
63536;SDS011;49686;51.880;5.632;2022-07-22T06:43:29;5.75;;;1.40;;
63536;SDS011;49686;51.880;5.632;2022-07-22T06:45:56;6.63;;;1.50;;
63536;SDS011;49686;51.880;5.632;2022-07-22T06:48:23;7.55;;;1.67;;
63536;SDS011;49686;51.880;5.632;2022-07-22T06:50:50;2.38;;;0.98;;
63536;SDS011;49686;51.880;5.632;2022-07-22T06:53:20;3.85;;;1.00;;
63536;SDS011;49686;51.880;5.632;2022-07-22T06:55:47;5.57;;;1.83;;
63536;SDS011;49686;51.880;5.632;2022-07-22T06:58:15;6.20;;;1.30;;
63536;SDS011;49686;51.880;5.632;2022-07-22T07:00:45;2.75;;;1.08;;
63536;SDS011;49686;51.880;5.632;2022-07-22T07:03:12;6.47;;;1.45;;
63536;SDS011;49686;51.880;5.632;2022-07-22T07:06:00;3.63;;;1.20;;
63536;SDS011;49686;51.880;5.632;2022-07-22T07:08:27;3.20;;;1.63;;
63536;SDS011;49686;51.880;5.632;2022-07-22T07:10:54;5.35;;;1.42;;
63536;SDS011;49686;51.880;5.632;2022-07-22T07:13:25;3.53;;;1.50;;
63536;SDS011;49686;51.880;5.632;2022-07-22T07:15:52;3.38;;;1.60;;
63536;SDS011;49686;51.880;5.632;2022-07-22T07:18:22;2.47;;;1.00;;
63536;SDS011;49686;51.880;5.632;2022-07-22T07:20:49;3.55;;;1.30;;
63536;SDS011;49686;51.880;5.632;2022-07-22T07:23:22;4.53;;;1.27;;
63536;SDS011;49686;51.880;5.632;2022-07-22T07:25:53;3.72;;;1.40;;
63536;SDS011;49686;51.880;5.632;2022-07-22T07:28:20;3.30;;;1.67;;
63536;SDS011;49686;51.880;5.632;2022-07-22T07:30:49;2.72;;;1.15;;
63536;SDS011;49686;51.880;5.632;2022-07-22T07:33:17;5.05;;;1.40;;
63536;SDS011;49686;51.880;5.632;2022-07-22T07:35:44;2.05;;;1.00;;
63536;SDS011;49686;51.880;5.632;2022-07-22T07:38:12;6.05;;;1.10;;
63536;SDS011;49686;51.880;5.632;2022-07-22T07:40:45;7.18;;;1.38;;
63536;SDS011;49686;51.880;5.632;2022-07-22T07:43:12;3.47;;;1.15;;
63536;SDS011;49686;51.880;5.632;2022-07-22T07:45:40;3.17;;;1.00;;
63536;SDS011;49686;51.880;5.632;2022-07-22T07:48:08;4.75;;;1.17;;
63536;SDS011;49686;51.880;5.632;2022-07-22T07:50:43;3.35;;;1.00;;
63536;SDS011;49686;51.880;5.632;2022-07-22T07:53:13;3.45;;;1.20;;
63536;SDS011;49686;51.880;5.632;2022-07-22T07:55:49;3.88;;;0.93;;
63536;SDS011;49686;51.880;5.632;2022-07-22T07:58:17;4.38;;;1.25;;
63536;SDS011;49686;51.880;5.632;2022-07-22T08:00:44;3.20;;;1.10;;
63536;SDS011;49686;51.880;5.632;2022-07-22T08:03:15;2.10;;;0.82;;
63536;SDS011;49686;51.880;5.632;2022-07-22T08:05:44;4.18;;;1.00;;
63536;SDS011;49686;51.880;5.632;2022-07-22T08:08:11;4.40;;;1.10;;
63536;SDS011;49686;51.880;5.632;2022-07-22T08:10:43;4.28;;;1.02;;
63536;SDS011;49686;51.880;5.632;2022-07-22T08:13:24;5.53;;;1.40;;
63536;SDS011;49686;51.880;5.632;2022-07-22T08:15:51;4.60;;;1.08;;
63536;SDS011;49686;51.880;5.632;2022-07-22T08:18:20;4.28;;;1.90;;
63536;SDS011;49686;51.880;5.632;2022-07-22T08:20:48;3.25;;;1.08;;
63536;SDS011;49686;51.880;5.632;2022-07-22T08:23:14;2.75;;;0.82;;
63536;SDS011;49686;51.880;5.632;2022-07-22T08:25:45;4.63;;;1.25;;
63536;SDS011;49686;51.880;5.632;2022-07-22T08:28:13;6.10;;;0.90;;
63536;SDS011;49686;51.880;5.632;2022-07-22T08:30:40;2.60;;;1.08;;
63536;SDS011;49686;51.880;5.632;2022-07-22T08:33:07;2.33;;;0.80;;
63536;SDS011;49686;51.880;5.632;2022-07-22T08:35:38;3.50;;;1.70;;
63536;SDS011;49686;51.880;5.632;2022-07-22T08:38:05;2.40;;;0.98;;
63536;SDS011;49686;51.880;5.632;2022-07-22T08:40:32;7.72;;;1.10;;
63536;SDS011;49686;51.880;5.632;2022-07-22T08:43:02;3.72;;;1.23;;
63536;SDS011;49686;51.880;5.632;2022-07-22T08:45:29;3.40;;;1.33;;
63536;SDS011;49686;51.880;5.632;2022-07-22T08:47:58;3.75;;;1.13;;
63536;SDS011;49686;51.880;5.632;2022-07-22T08:50:25;3.20;;;1.00;;
63536;SDS011;49686;51.880;5.632;2022-07-22T08:52:54;3.47;;;1.10;;
63536;SDS011;49686;51.880;5.632;2022-07-22T08:55:24;2.65;;;0.90;;
63536;SDS011;49686;51.880;5.632;2022-07-22T08:57:51;2.95;;;1.00;;
63536;SDS011;49686;51.880;5.632;2022-07-22T09:00:21;4.65;;;1.10;;
63536;SDS011;49686;51.880;5.632;2022-07-22T09:02:51;3.70;;;1.00;;
63536;SDS011;49686;51.880;5.632;2022-07-22T09:05:18;4.13;;;1.05;;
63536;SDS011;49686;51.880;5.632;2022-07-22T09:08:07;5.78;;;1.08;;
63536;SDS011;49686;51.880;5.632;2022-07-22T09:10:34;2.10;;;1.02;;
63536;SDS011;49686;51.880;5.632;2022-07-22T09:13:02;4.03;;;1.10;;
63536;SDS011;49686;51.880;5.632;2022-07-22T09:15:34;2.58;;;1.02;;
63536;SDS011;49686;51.880;5.632;2022-07-22T09:18:03;6.00;;;1.15;;
63536;SDS011;49686;51.880;5.632;2022-07-22T09:20:33;2.67;;;1.00;;
63536;SDS011;49686;51.880;5.632;2022-07-22T09:23:09;3.42;;;0.90;;
63536;SDS011;49686;51.880;5.632;2022-07-22T09:25:39;4.35;;;1.50;;
63536;SDS011;49686;51.880;5.632;2022-07-22T09:30:48;4.15;;;1.85;;
63536;SDS011;49686;51.880;5.632;2022-07-22T09:33:18;4.90;;;1.67;;
63536;SDS011;49686;51.880;5.632;2022-07-22T09:35:47;4.88;;;1.60;;
63536;SDS011;49686;51.880;5.632;2022-07-22T09:38:18;6.18;;;1.70;;
63536;SDS011;49686;51.880;5.632;2022-07-22T09:40:53;5.30;;;1.52;;
63536;SDS011;49686;51.880;5.632;2022-07-22T09:43:20;4.20;;;1.67;;
63536;SDS011;49686;51.880;5.632;2022-07-22T09:45:49;5.05;;;1.65;;
63536;SDS011;49686;51.880;5.632;2022-07-22T09:48:20;6.00;;;1.50;;
63536;SDS011;49686;51.880;5.632;2022-07-22T09:50:49;5.88;;;1.65;;
63536;SDS011;49686;51.880;5.632;2022-07-22T09:53:24;4.05;;;1.52;;
63536;SDS011;49686;51.880;5.632;2022-07-22T09:55:52;5.10;;;1.33;;
63536;SDS011;49686;51.880;5.632;2022-07-22T09:58:18;2.50;;;1.17;;
63536;SDS011;49686;51.880;5.632;2022-07-22T10:00:46;5.95;;;1.65;;
63536;SDS011;49686;51.880;5.632;2022-07-22T10:03:17;2.90;;;1.75;;
63536;SDS011;49686;51.880;5.632;2022-07-22T10:05:52;11.13;;;2.05;;
63536;SDS011;49686;51.880;5.632;2022-07-22T10:08:22;4.82;;;1.40;;
63536;SDS011;49686;51.880;5.632;2022-07-22T10:10:51;4.72;;;1.55;;
63536;SDS011;49686;51.880;5.632;2022-07-22T10:13:20;4.38;;;1.55;;
63536;SDS011;49686;51.880;5.632;2022-07-22T10:15:47;5.25;;;1.42;;
63536;SDS011;49686;51.880;5.632;2022-07-22T10:18:16;4.30;;;1.48;;
63536;SDS011;49686;51.880;5.632;2022-07-22T10:23:11;3.55;;;1.65;;
63536;SDS011;49686;51.880;5.632;2022-07-22T10:25:51;5.53;;;2.28;;
63536;SDS011;49686;51.880;5.632;2022-07-22T10:28:22;5.30;;;1.70;;
63536;SDS011;49686;51.880;5.632;2022-07-22T10:31:07;7.25;;;1.92;;
63536;SDS011;49686;51.880;5.632;2022-07-22T10:33:44;3.72;;;1.50;;
63536;SDS011;49686;51.880;5.632;2022-07-22T10:36:29;6.38;;;1.50;;
63536;SDS011;49686;51.880;5.632;2022-07-22T10:39:04;2.05;;;1.25;;
63536;SDS011;49686;51.880;5.632;2022-07-22T10:41:37;4.50;;;1.38;;
63536;SDS011;49686;51.880;5.632;2022-07-22T10:44:07;4.35;;;1.92;;
63536;SDS011;49686;51.880;5.632;2022-07-22T10:46:52;5.78;;;1.52;;
63536;SDS011;49686;51.880;5.632;2022-07-22T10:49:20;6.10;;;1.65;;
63536;SDS011;49686;51.880;5.632;2022-07-22T10:57:56;4.10;;;1.73;;
63536;SDS011;49686;51.880;5.632;2022-07-22T11:00:25;5.60;;;1.80;;
63536;SDS011;49686;51.880;5.632;2022-07-22T11:02:53;5.10;;;1.67;;
63536;SDS011;49686;51.880;5.632;2022-07-22T11:05:26;5.28;;;1.92;;
63536;SDS011;49686;51.880;5.632;2022-07-22T11:10:35;5.68;;;2.00;;
63536;SDS011;49686;51.880;5.632;2022-07-22T11:16:15;3.30;;;1.58;;
63536;SDS011;49686;51.880;5.632;2022-07-22T11:18:45;4.88;;;1.90;;
63536;SDS011;49686;51.880;5.632;2022-07-22T11:21:13;5.32;;;1.73;;
63536;SDS011;49686;51.880;5.632;2022-07-22T11:23:42;5.30;;;1.58;;
63536;SDS011;49686;51.880;5.632;2022-07-22T11:26:10;6.63;;;1.40;;
63536;SDS011;49686;51.880;5.632;2022-07-22T11:28:41;3.35;;;1.60;;
63536;SDS011;49686;51.880;5.632;2022-07-22T11:31:09;4.18;;;1.60;;
63536;SDS011;49686;51.880;5.632;2022-07-22T11:33:41;3.40;;;1.50;;
63536;SDS011;49686;51.880;5.632;2022-07-22T11:36:08;5.53;;;1.50;;
63536;SDS011;49686;51.880;5.632;2022-07-22T11:38:42;3.20;;;1.65;;
63536;SDS011;49686;51.880;5.632;2022-07-22T11:41:18;2.95;;;1.80;;
63536;SDS011;49686;51.880;5.632;2022-07-22T11:43:46;5.90;;;2.08;;
63536;SDS011;49686;51.880;5.632;2022-07-22T11:46:15;3.55;;;1.35;;
63536;SDS011;49686;51.880;5.632;2022-07-22T11:48:46;3.83;;;1.30;;
63536;SDS011;49686;51.880;5.632;2022-07-22T11:51:13;1.88;;;1.30;;
63536;SDS011;49686;51.880;5.632;2022-07-22T11:53:47;3.97;;;1.40;;
63536;SDS011;49686;51.880;5.632;2022-07-22T11:56:14;5.15;;;1.83;;
63536;SDS011;49686;51.880;5.632;2022-07-22T11:58:41;1.90;;;1.10;;
63536;SDS011;49686;51.880;5.632;2022-07-22T12:01:11;4.03;;;1.40;;
63536;SDS011;49686;51.880;5.632;2022-07-22T12:06:09;4.22;;;1.27;;
63536;SDS011;49686;51.880;5.632;2022-07-22T12:08:42;3.95;;;1.25;;
63536;SDS011;49686;51.880;5.632;2022-07-22T12:11:11;5.03;;;1.80;;
63536;SDS011;49686;51.880;5.632;2022-07-22T12:13:40;5.90;;;1.30;;
63536;SDS011;49686;51.880;5.632;2022-07-22T12:16:16;4.45;;;1.60;;
63536;SDS011;49686;51.880;5.632;2022-07-22T12:18:50;3.83;;;1.33;;
63536;SDS011;49686;51.880;5.632;2022-07-22T12:21:19;2.78;;;1.30;;
63536;SDS011;49686;51.880;5.632;2022-07-22T12:23:52;3.47;;;1.58;;
63536;SDS011;49686;51.880;5.632;2022-07-22T12:29:14;4.85;;;2.15;;
63536;SDS011;49686;51.880;5.632;2022-07-22T12:31:45;2.22;;;1.30;;
63536;SDS011;49686;51.880;5.632;2022-07-22T12:36:44;2.95;;;1.60;;
63536;SDS011;49686;51.880;5.632;2022-07-22T12:39:13;6.35;;;1.65;;
63536;SDS011;49686;51.880;5.632;2022-07-22T12:41:48;4.00;;;1.73;;
63536;SDS011;49686;51.880;5.632;2022-07-22T12:44:17;3.50;;;1.60;;
63536;SDS011;49686;51.880;5.632;2022-07-22T12:46:46;6.72;;;1.75;;
63536;SDS011;49686;51.880;5.632;2022-07-22T12:49:15;5.80;;;1.92;;
63536;SDS011;49686;51.880;5.632;2022-07-22T12:54:33;3.58;;;1.73;;
63536;SDS011;49686;51.880;5.632;2022-07-22T12:57:01;6.50;;;1.80;;
63536;SDS011;49686;51.880;5.632;2022-07-22T12:59:28;3.45;;;1.42;;
63536;SDS011;49686;51.880;5.632;2022-07-22T13:01:56;4.00;;;1.90;;
63536;SDS011;49686;51.880;5.632;2022-07-22T13:04:23;4.57;;;1.63;;
63536;SDS011;49686;51.880;5.632;2022-07-22T13:06:50;3.67;;;1.70;;
63536;SDS011;49686;51.880;5.632;2022-07-22T13:09:19;4.07;;;2.03;;
63536;SDS011;49686;51.880;5.632;2022-07-22T13:11:45;5.22;;;1.73;;
63536;SDS011;49686;51.880;5.632;2022-07-22T13:14:13;7.15;;;2.00;;
63536;SDS011;49686;51.880;5.632;2022-07-22T13:16:40;4.13;;;1.52;;
63536;SDS011;49686;51.880;5.632;2022-07-22T13:19:07;4.30;;;1.40;;
63536;SDS011;49686;51.880;5.632;2022-07-22T13:21:34;5.40;;;1.70;;
63536;SDS011;49686;51.880;5.632;2022-07-22T13:24:02;4.20;;;1.50;;
63536;SDS011;49686;51.880;5.632;2022-07-22T13:26:30;2.92;;;1.60;;
63536;SDS011;49686;51.880;5.632;2022-07-22T13:28:57;2.55;;;1.85;;
63536;SDS011;49686;51.880;5.632;2022-07-22T13:31:25;4.13;;;2.20;;
63536;SDS011;49686;51.880;5.632;2022-07-22T13:33:52;3.70;;;1.65;;
63536;SDS011;49686;51.880;5.632;2022-07-22T13:36:19;4.70;;;1.60;;
63536;SDS011;49686;51.880;5.632;2022-07-22T13:38:46;5.50;;;2.30;;
63536;SDS011;49686;51.880;5.632;2022-07-22T13:41:14;4.72;;;2.00;;
63536;SDS011;49686;51.880;5.632;2022-07-22T13:43:42;3.65;;;1.70;;
63536;SDS011;49686;51.880;5.632;2022-07-22T13:46:10;3.28;;;1.60;;
63536;SDS011;49686;51.880;5.632;2022-07-22T13:48:37;4.03;;;1.35;;
63536;SDS011;49686;51.880;5.632;2022-07-22T13:51:04;3.63;;;2.40;;
63536;SDS011;49686;51.880;5.632;2022-07-22T13:53:32;5.43;;;1.90;;
63536;SDS011;49686;51.880;5.632;2022-07-22T13:55:59;3.42;;;1.90;;
63536;SDS011;49686;51.880;5.632;2022-07-22T13:58:26;7.13;;;2.00;;
63536;SDS011;49686;51.880;5.632;2022-07-22T14:00:55;5.20;;;1.70;;
63536;SDS011;49686;51.880;5.632;2022-07-22T14:03:22;3.47;;;2.00;;
63536;SDS011;49686;51.880;5.632;2022-07-22T14:05:48;4.15;;;1.52;;
63536;SDS011;49686;51.880;5.632;2022-07-22T14:08:16;3.13;;;1.65;;
63536;SDS011;49686;51.880;5.632;2022-07-22T14:10:43;4.28;;;1.83;;
63536;SDS011;49686;51.880;5.632;2022-07-22T14:13:09;4.88;;;2.20;;
63536;SDS011;49686;51.880;5.632;2022-07-22T14:15:37;7.40;;;1.75;;
63536;SDS011;49686;51.880;5.632;2022-07-22T14:18:05;2.28;;;1.60;;
63536;SDS011;49686;51.880;5.632;2022-07-22T14:20:33;3.53;;;1.80;;
63536;SDS011;49686;51.880;5.632;2022-07-22T14:23:01;4.90;;;1.83;;
63536;SDS011;49686;51.880;5.632;2022-07-22T14:25:28;4.60;;;1.80;;
63536;SDS011;49686;51.880;5.632;2022-07-22T14:27:55;3.58;;;1.80;;
63536;SDS011;49686;51.880;5.632;2022-07-22T14:30:42;5.13;;;2.15;;
63536;SDS011;49686;51.880;5.632;2022-07-22T14:33:10;3.28;;;1.90;;
63536;SDS011;49686;51.880;5.632;2022-07-22T14:35:37;4.65;;;2.10;;
63536;SDS011;49686;51.880;5.632;2022-07-22T14:38:05;6.18;;;1.90;;
63536;SDS011;49686;51.880;5.632;2022-07-22T14:40:31;3.50;;;1.92;;
63536;SDS011;49686;51.880;5.632;2022-07-22T14:42:58;6.20;;;1.88;;
63536;SDS011;49686;51.880;5.632;2022-07-22T14:45:46;3.05;;;1.95;;
63536;SDS011;49686;51.880;5.632;2022-07-22T14:48:14;3.38;;;1.80;;
63536;SDS011;49686;51.880;5.632;2022-07-22T14:50:41;6.75;;;1.60;;
63536;SDS011;49686;51.880;5.632;2022-07-22T14:53:09;4.07;;;2.05;;
63536;SDS011;49686;51.880;5.632;2022-07-22T14:55:36;3.88;;;1.95;;
63536;SDS011;49686;51.880;5.632;2022-07-22T14:58:03;3.33;;;1.85;;
63536;SDS011;49686;51.880;5.632;2022-07-22T15:00:30;3.30;;;1.85;;
63536;SDS011;49686;51.880;5.632;2022-07-22T15:02:57;4.10;;;2.08;;
63536;SDS011;49686;51.880;5.632;2022-07-22T15:05:25;5.22;;;2.28;;
63536;SDS011;49686;51.880;5.632;2022-07-22T15:07:53;8.35;;;2.00;;
63536;SDS011;49686;51.880;5.632;2022-07-22T15:10:20;4.38;;;2.10;;
63536;SDS011;49686;51.880;5.632;2022-07-22T15:12:47;4.07;;;2.05;;
63536;SDS011;49686;51.880;5.632;2022-07-22T15:17:42;4.75;;;2.05;;
63536;SDS011;49686;51.880;5.632;2022-07-22T15:20:09;3.67;;;1.63;;
63536;SDS011;49686;51.880;5.632;2022-07-22T15:22:38;2.78;;;1.75;;
63536;SDS011;49686;51.880;5.632;2022-07-22T15:25:05;4.00;;;1.90;;
63536;SDS011;49686;51.880;5.632;2022-07-22T15:27:32;3.05;;;2.03;;
63536;SDS011;49686;51.880;5.632;2022-07-22T15:29:59;4.28;;;2.13;;
63536;SDS011;49686;51.880;5.632;2022-07-22T15:32:26;9.20;;;1.95;;
63536;SDS011;49686;51.880;5.632;2022-07-22T15:34:53;4.15;;;2.10;;